Terminal Aerodrome Forecast
Issued by NWS

Home | Current Version | Previous Version | Text Only | Print | Product List | Glossary On
Versions: 1 2 3 4 5 6 7 8 9 10 11 12 13 14 15 16 17 18 19 20 21 22 23 24 25 26 27 28
947
FTUS42 KCAE 251139
TAFCUB
TAF
KCUB 251139Z 2512/2612 21006KT P6SM SCT050 WS010/21030KT
     FM251500 22012G21KT P6SM SCT012 BKN045
     FM251800 25011G20KT P6SM VCSH SCT035 BKN080
     FM260000 23009KT 6SM -SHRA BR SCT025 BKN035 OVC070
     FM260400 VRB04KT 5SM -RA BR SCT010 BKN025 OVC040=

USA.gov is the U.S. government's official web portal to all federal, state and local government web resources and services.